Time;durP1;ratioP1;P1;durP2;ratioP2;P2;SDS_P1;SDS_P2;PMS_P1;PMS_P2;Temp;Humidity;BMP_temperature;BMP_pressure;BME280_temperature;BME280_humidity;BME280_pressure;Samples;Min_cycle;Max_cycle;Signal;HPM_P1;HPM_P2
2021/03/15 00:01:17;;;;;;;11.00;5.87;;;;;;;;;;4972995;28;20960;-60
2021/03/15 00:03:43;;;;;;;17.33;5.90;;;;;;;;;;4973703;28;20973;-60
2021/03/15 00:06:10;;;;;;;16.03;6.80;;;;;;;;;;4973283;28;20509;-60
2021/03/15 00:08:37;;;;;;;20.63;6.77;;;;;;;;;;4973661;28;20447;-60
2021/03/15 00:11:04;;;;;;;18.20;6.87;;;;;;;;;;4973195;28;20487;-60
2021/03/15 00:13:31;;;;;;;15.23;5.90;;;;;;;;;;4973162;28;20457;-61
2021/03/15 00:15:58;;;;;;;14.40;6.20;;;;;;;;;;4972901;28;20452;-60
2021/03/15 00:18:25;;;;;;;17.87;7.47;;;;;;;;;;4973244;28;20571;-60
2021/03/15 00:20:52;;;;;;;13.30;5.27;;;;;;;;;;4973161;28;20467;-60
2021/03/15 00:23:18;;;;;;;7.77;3.90;;;;;;;;;;4973044;28;20546;-60
2021/03/15 00:25:46;;;;;;;5.47;4.43;;;;;;;;;;4973063;28;20514;-60
2021/03/15 00:28:13;;;;;;;9.33;4.70;;;;;;;;;;4973008;28;20448;-60
2021/03/15 00:30:40;;;;;;;9.87;4.87;;;;;;;;;;4972409;28;20478;-60
2021/03/15 00:33:06;;;;;;;14.17;4.90;;;;;;;;;;4973308;28;20451;-60
2021/03/15 00:35:33;;;;;;;13.00;4.70;;;;;;;;;;4974864;28;20467;-60
2021/03/15 00:38:00;;;;;;;11.43;5.80;;;;;;;;;;4973108;28;20994;-61
2021/03/15 00:40:26;;;;;;;9.40;4.80;;;;;;;;;;4972603;28;20480;-61
2021/03/15 00:42:56;;;;;;;11.50;5.40;;;;;;;;;;4970652;28;20459;-61
2021/03/15 00:45:24;;;;;;;14.77;6.40;;;;;;;;;;4953625;29;20531;-61
2021/03/15 00:47:51;;;;;;;12.87;6.17;;;;;;;;;;4967249;28;20542;-60
2021/03/15 00:50:23;;;;;;;14.10;6.33;;;;;;;;;;4981045;28;20517;-61
2021/03/15 00:52:50;;;;;;;14.97;6.70;;;;;;;;;;4972998;28;20438;-61
2021/03/15 00:55:16;;;;;;;18.03;7.10;;;;;;;;;;4972413;28;20574;-60
2021/03/15 00:57:43;;;;;;;10.80;5.63;;;;;;;;;;4972756;28;20487;-60
2021/03/15 01:00:12;;;;;;;16.00;6.80;;;;;;;;;;4972725;28;20555;-60
2021/03/15 01:02:39;;;;;;;12.50;5.83;;;;;;;;;;4973106;28;20447;-61
2021/03/15 01:05:06;;;;;;;13.17;6.30;;;;;;;;;;4972394;28;20547;-61
2021/03/15 01:07:33;;;;;;;10.70;5.20;;;;;;;;;;4972620;28;20499;-61
2021/03/15 01:09:59;;;;;;;10.53;5.70;;;;;;;;;;4972210;28;20577;-61
2021/03/15 01:12:26;;;;;;;6.90;4.13;;;;;;;;;;4972848;28;20478;-61
2021/03/15 01:14:53;;;;;;;11.80;5.13;;;;;;;;;;4972050;28;20994;-61
2021/03/15 01:17:20;;;;;;;9.60;4.40;;;;;;;;;;4972009;28;20491;-61
2021/03/15 01:19:47;;;;;;;13.03;4.63;;;;;;;;;;4972844;28;20479;-60
2021/03/15 01:22:14;;;;;;;10.00;5.03;;;;;;;;;;4972451;28;20961;-61
2021/03/15 01:24:40;;;;;;;8.83;5.30;;;;;;;;;;4972528;28;20459;-61
2021/03/15 01:27:07;;;;;;;9.67;4.37;;;;;;;;;;4971802;28;20951;-61
2021/03/15 01:29:34;;;;;;;10.47;5.10;;;;;;;;;;4972862;28;20509;-61
2021/03/15 01:32:00;;;;;;;10.00;4.87;;;;;;;;;;4972320;28;20459;-61
2021/03/15 01:34:28;;;;;;;9.37;4.63;;;;;;;;;;4978307;28;20455;-61
2021/03/15 01:36:54;;;;;;;7.20;4.70;;;;;;;;;;4971574;28;20487;-61
2021/03/15 01:39:21;;;;;;;8.47;5.37;;;;;;;;;;4972294;28;20452;-60
2021/03/15 01:41:48;;;;;;;13.60;5.40;;;;;;;;;;4972096;28;20458;-60
2021/03/15 01:44:14;;;;;;;8.53;5.50;;;;;;;;;;4972666;28;20455;-60
2021/03/15 01:46:41;;;;;;;15.37;5.43;;;;;;;;;;4971956;28;20973;-61
2021/03/15 01:49:08;;;;;;;11.17;5.47;;;;;;;;;;4972061;28;20958;-61
2021/03/15 01:51:35;;;;;;;8.77;5.70;;;;;;;;;;4972310;28;20471;-61
2021/03/15 01:54:02;;;;;;;9.57;4.97;;;;;;;;;;4971514;28;20455;-60
2021/03/15 01:56:29;;;;;;;13.50;6.17;;;;;;;;;;4972079;28;20459;-61
2021/03/15 01:58:56;;;;;;;11.20;6.13;;;;;;;;;;4972350;28;20542;-61
2021/03/15 02:01:22;;;;;;;13.30;6.20;;;;;;;;;;4972060;28;20471;-61
2021/03/15 02:03:49;;;;;;;10.20;5.90;;;;;;;;;;4971902;28;20455;-60
2021/03/15 02:06:16;;;;;;;9.90;6.17;;;;;;;;;;4971679;28;20466;-61
2021/03/15 02:08:43;;;;;;;10.70;6.70;;;;;;;;;;4972516;28;20454;-61
2021/03/15 02:11:13;;;;;;;15.10;6.70;;;;;;;;;;4972208;28;20498;-60
2021/03/15 02:14:00;;;;;;;14.43;6.90;;;;;;;;;;4974489;28;20462;-60
2021/03/15 02:16:34;;;;;;;9.07;6.57;;;;;;;;;;4977352;23;20497;-64
2021/03/15 02:19:07;;;;;;;12.93;6.20;;;;;;;;;;4994684;28;20670;-63
2021/03/15 02:21:54;;;;;;;9.23;5.83;;;;;;;;;;4994593;28;20465;-63
2021/03/15 02:24:26;;;;;;;9.90;6.20;;;;;;;;;;4990133;28;20537;-63
2021/03/15 02:27:11;;;;;;;14.10;7.07;;;;;;;;;;4994053;28;21012;-63
2021/03/15 02:29:44;;;;;;;18.00;6.73;;;;;;;;;;4984947;28;20447;-63
2021/03/15 02:32:23;;;;;;;13.03;7.53;;;;;;;;;;4989251;28;20446;-64
2021/03/15 02:34:59;;;;;;;13.93;6.70;;;;;;;;;;4994469;28;20458;-64
2021/03/15 02:37:28;;;;;;;11.43;6.43;;;;;;;;;;4994565;28;20500;-63
2021/03/15 02:39:56;;;;;;;12.40;7.10;;;;;;;;;;5002869;28;20456;-63
2021/03/15 02:42:24;;;;;;;14.03;7.10;;;;;;;;;;5014413;28;20449;-63
2021/03/15 02:44:52;;;;;;;13.33;6.90;;;;;;;;;;4990627;28;20523;-63
2021/03/15 02:47:21;;;;;;;13.23;6.60;;;;;;;;;;4975433;28;20510;-63
2021/03/15 02:49:49;;;;;;;10.13;7.00;;;;;;;;;;4986229;28;20465;-63
2021/03/15 02:52:17;;;;;;;14.60;7.60;;;;;;;;;;4994267;28;20450;-64
2021/03/15 02:54:45;;;;;;;12.57;6.17;;;;;;;;;;4994131;28;20454;-64
2021/03/15 02:57:12;;;;;;;13.60;6.50;;;;;;;;;;4993978;28;20943;-64
2021/03/15 02:59:39;;;;;;;19.37;8.63;;;;;;;;;;4994225;28;20945;-64
2021/03/15 03:02:06;;;;;;;12.57;6.63;;;;;;;;;;4974871;28;20509;-63
2021/03/15 03:04:33;;;;;;;11.50;6.47;;;;;;;;;;4994366;28;20806;-63
2021/03/15 03:07:01;;;;;;;9.77;6.60;;;;;;;;;;4975642;28;20458;-63
2021/03/15 03:09:29;;;;;;;12.67;7.57;;;;;;;;;;4991360;28;20961;-63
2021/03/15 03:11:56;;;;;;;15.37;7.60;;;;;;;;;;4993279;28;20504;-63
2021/03/15 03:14:23;;;;;;;14.00;7.03;;;;;;;;;;4993583;28;20500;-63
2021/03/15 03:16:51;;;;;;;20.50;8.27;;;;;;;;;;4989132;28;20932;-63
2021/03/15 03:19:19;;;;;;;16.30;7.73;;;;;;;;;;5002669;28;20472;-63
2021/03/15 03:21:47;;;;;;;9.97;7.30;;;;;;;;;;4997158;28;20455;-63
2021/03/15 03:24:14;;;;;;;13.73;8.07;;;;;;;;;;4993508;28;20953;-63
2021/03/15 03:26:43;;;;;;;15.47;8.10;;;;;;;;;;4993845;28;20466;-63
2021/03/15 03:29:11;;;;;;;14.83;7.87;;;;;;;;;;4993301;28;20457;-63
2021/03/15 03:31:39;;;;;;;14.93;8.83;;;;;;;;;;4993722;28;20456;-63
2021/03/15 03:34:07;;;;;;;20.97;8.47;;;;;;;;;;4994646;28;20604;-63
2021/03/15 03:36:34;;;;;;;14.37;8.97;;;;;;;;;;5000697;28;20482;-65
2021/03/15 03:39:01;;;;;;;14.37;8.67;;;;;;;;;;4974260;28;20447;-63
2021/03/15 03:41:28;;;;;;;14.20;8.40;;;;;;;;;;4989498;28;20533;-65
2021/03/15 03:43:55;;;;;;;10.97;8.60;;;;;;;;;;4988265;28;20530;-64
2021/03/15 03:46:22;;;;;;;19.17;9.00;;;;;;;;;;4987205;28;20470;-64
2021/03/15 03:48:49;;;;;;;12.87;9.27;;;;;;;;;;4988856;28;21117;-65
2021/03/15 03:51:18;;;;;;;13.57;8.10;;;;;;;;;;4983028;28;20446;-65
2021/03/15 03:53:47;;;;;;;9.40;7.70;;;;;;;;;;4993355;28;20450;-66
2021/03/15 03:56:14;;;;;;;17.60;8.00;;;;;;;;;;4993032;28;20520;-64
2021/03/15 03:58:43;;;;;;;15.90;9.40;;;;;;;;;;4984335;28;20493;-64
2021/03/15 04:01:12;;;;;;;13.93;9.00;;;;;;;;;;4991695;28;20454;-65
2021/03/15 04:03:39;;;;;;;18.27;8.60;;;;;;;;;;4997184;28;20456;-65
2021/03/15 04:06:07;;;;;;;13.27;8.40;;;;;;;;;;4999614;28;20476;-64
2021/03/15 04:08:42;;;;;;;12.83;8.33;;;;;;;;;;4993138;28;20545;-65
2021/03/15 04:11:09;;;;;;;12.40;7.90;;;;;;;;;;4995044;28;20457;-65
2021/03/15 04:13:37;;;;;;;15.50;7.60;;;;;;;;;;4993552;28;20450;-65
2021/03/15 04:16:05;;;;;;;14.27;8.63;;;;;;;;;;4981983;28;20474;-65
2021/03/15 04:18:34;;;;;;;12.67;8.90;;;;;;;;;;4983083;28;20487;-64
2021/03/15 04:21:02;;;;;;;9.73;7.73;;;;;;;;;;4993463;28;20451;-63
2021/03/15 04:23:30;;;;;;;9.43;8.00;;;;;;;;;;4981306;28;20459;-65
2021/03/15 04:25:57;;;;;;;13.23;8.70;;;;;;;;;;4991311;28;21015;-64
2021/03/15 04:28:25;;;;;;;13.70;8.50;;;;;;;;;;4992169;28;20513;-64
2021/03/15 04:30:53;;;;;;;11.23;7.77;;;;;;;;;;4992565;28;20461;-64
2021/03/15 04:33:20;;;;;;;10.40;8.73;;;;;;;;;;4991155;28;20442;-64
2021/03/15 04:35:48;;;;;;;11.33;8.70;;;;;;;;;;4977238;28;20471;-65
2021/03/15 04:38:15;;;;;;;9.00;7.90;;;;;;;;;;4977456;28;20553;-65
2021/03/15 04:40:43;;;;;;;12.93;9.53;;;;;;;;;;4992777;28;20489;-65
2021/03/15 04:43:10;;;;;;;12.63;9.30;;;;;;;;;;4993412;28;20485;-65
2021/03/15 04:45:43;;;;;;;12.00;8.30;;;;;;;;;;4978688;28;20470;-65
2021/03/15 04:48:10;;;;;;;14.90;9.20;;;;;;;;;;4990158;28;20530;-65
2021/03/15 04:50:37;;;;;;;9.30;7.90;;;;;;;;;;5003261;28;20474;-63
2021/03/15 04:53:05;;;;;;;9.37;8.40;;;;;;;;;;5008005;28;20831;-63
2021/03/15 04:55:32;;;;;;;9.10;7.33;;;;;;;;;;5007661;28;20558;-65
2021/03/15 04:57:59;;;;;;;10.73;7.50;;;;;;;;;;5005020;28;20482;-65
2021/03/15 05:00:26;;;;;;;7.40;6.70;;;;;;;;;;5008017;28;20451;-62
2021/03/15 05:02:53;;;;;;;8.50;7.17;;;;;;;;;;5006746;28;20458;-64
2021/03/15 05:05:21;;;;;;;11.70;6.63;;;;;;;;;;5007946;28;20842;-65
2021/03/15 05:07:49;;;;;;;8.43;7.50;;;;;;;;;;5008681;28;20477;-65
2021/03/15 05:10:18;;;;;;;9.40;8.60;;;;;;;;;;5001748;28;20460;-65
2021/03/15 05:12:45;;;;;;;9.30;8.27;;;;;;;;;;4973527;28;20490;-64
2021/03/15 05:15:12;;;;;;;8.10;7.40;;;;;;;;;;4988208;28;20494;-64
2021/03/15 05:17:39;;;;;;;8.77;7.90;;;;;;;;;;4992270;28;20473;-64
2021/03/15 05:20:08;;;;;;;8.30;7.60;;;;;;;;;;4992354;28;20489;-64
2021/03/15 05:22:36;;;;;;;8.30;7.50;;;;;;;;;;4990524;28;20457;-65
2021/03/15 05:25:03;;;;;;;9.30;8.37;;;;;;;;;;4988673;28;21001;-65
2021/03/15 05:27:31;;;;;;;8.93;7.93;;;;;;;;;;4990493;28;20454;-65
2021/03/15 05:29:59;;;;;;;9.27;8.57;;;;;;;;;;4972870;28;20574;-65
2021/03/15 05:32:27;;;;;;;8.47;7.80;;;;;;;;;;4981861;28;20486;-64
2021/03/15 05:34:54;;;;;;;8.00;7.30;;;;;;;;;;4992225;28;20549;-65
2021/03/15 05:37:22;;;;;;;8.43;7.53;;;;;;;;;;4990833;28;20877;-65
2021/03/15 05:39:49;;;;;;;7.77;7.00;;;;;;;;;;4991875;28;20447;-64
2021/03/15 05:42:24;;;;;;;9.60;7.30;;;;;;;;;;4992099;28;20546;-64
2021/03/15 05:45:01;;;;;;;11.33;7.63;;;;;;;;;;4978602;28;20442;-65
2021/03/15 05:47:49;;;;;;;14.00;7.40;;;;;;;;;;4991728;28;21171;-65
2021/03/15 05:50:31;;;;;;;8.30;7.50;;;;;;;;;;4973369;28;20884;-64
2021/03/15 05:53:14;;;;;;;10.67;6.73;;;;;;;;;;4994966;28;20465;-65
2021/03/15 05:55:45;;;;;;;11.13;7.70;;;;;;;;;;4995773;28;20470;-64
2021/03/15 05:58:31;;;;;;;9.43;7.97;;;;;;;;;;4995257;28;20866;-63
2021/03/15 06:01:11;;;;;;;10.70;7.67;;;;;;;;;;4995581;28;20975;-64
2021/03/15 06:03:47;;;;;;;9.87;7.80;;;;;;;;;;4989140;28;20545;-63
2021/03/15 06:06:17;;;;;;;12.13;7.73;;;;;;;;;;4995876;28;20627;-64
2021/03/15 06:08:45;;;;;;;8.50;7.70;;;;;;;;;;4995227;28;20446;-65
2021/03/15 06:11:12;;;;;;;8.30;7.50;;;;;;;;;;4995289;28;20646;-64
2021/03/15 06:13:40;;;;;;;10.70;7.03;;;;;;;;;;4995532;28;20544;-64
2021/03/15 06:16:09;;;;;;;9.70;7.50;;;;;;;;;;4989453;28;20517;-64
2021/03/15 06:18:36;;;;;;;9.53;7.60;;;;;;;;;;4980409;28;20999;-65
2021/03/15 06:21:03;;;;;;;8.37;7.23;;;;;;;;;;4995007;28;20977;-64
2021/03/15 06:23:30;;;;;;;9.83;7.33;;;;;;;;;;4989078;28;20514;-65
2021/03/15 06:25:57;;;;;;;9.33;7.20;;;;;;;;;;4975750;28;20578;-64
2021/03/15 06:28:24;;;;;;;10.90;7.57;;;;;;;;;;4991477;28;20493;-65
2021/03/15 06:30:52;;;;;;;10.10;9.10;;;;;;;;;;4994821;28;20457;-63
2021/03/15 06:33:20;;;;;;;10.67;7.53;;;;;;;;;;4995198;28;20462;-63
2021/03/15 06:35:48;;;;;;;10.60;8.30;;;;;;;;;;4993485;28;20535;-63
2021/03/15 06:38:17;;;;;;;14.47;8.30;;;;;;;;;;4976511;28;20487;-64
2021/03/15 06:40:44;;;;;;;11.23;8.50;;;;;;;;;;4991793;28;20455;-63
2021/03/15 06:43:13;;;;;;;13.40;9.07;;;;;;;;;;4982178;28;20545;-63
2021/03/15 06:45:40;;;;;;;13.53;8.27;;;;;;;;;;4994975;28;20467;-63
2021/03/15 06:48:07;;;;;;;10.07;7.77;;;;;;;;;;4994187;28;20450;-63
2021/03/15 06:50:35;;;;;;;10.53;8.73;;;;;;;;;;4987485;28;20841;-65
2021/03/15 06:53:02;;;;;;;5.17;3.00;;;;;;;;;;4991071;28;20459;-65
2021/03/15 06:55:33;;;;;;;7.40;3.93;;;;;;;;;;4994017;28;20469;-64
2021/03/15 06:57:59;;;;;;;5.00;3.77;;;;;;;;;;4987416;28;20483;-65
2021/03/15 07:00:27;;;;;;;6.73;3.80;;;;;;;;;;4988336;28;20482;-67
2021/03/15 07:02:58;;;;;;;9.70;3.93;;;;;;;;;;4989131;28;20642;-65
2021/03/15 07:05:25;;;;;;;6.67;3.70;;;;;;;;;;4989352;28;20849;-65
2021/03/15 07:07:53;;;;;;;6.90;3.73;;;;;;;;;;4975423;28;20447;-65
2021/03/15 07:10:20;;;;;;;3.90;3.20;;;;;;;;;;4975397;28;20455;-66
2021/03/15 07:12:47;;;;;;;4.47;2.80;;;;;;;;;;4993762;28;20455;-65
2021/03/15 07:15:14;;;;;;;3.90;3.13;;;;;;;;;;4980853;28;20540;-66
2021/03/15 07:17:41;;;;;;;5.97;3.67;;;;;;;;;;4980258;28;20487;-66
2021/03/15 07:20:09;;;;;;;3.93;2.50;;;;;;;;;;4990033;28;20481;-65
2021/03/15 07:22:36;;;;;;;6.43;3.23;;;;;;;;;;4994560;28;20451;-65
2021/03/15 07:25:06;;;;;;;5.33;3.10;;;;;;;;;;4994596;28;21005;-65
2021/03/15 07:27:33;;;;;;;5.30;2.43;;;;;;;;;;4996613;28;20458;-67
2021/03/15 07:30:22;;;;;;;4.70;2.10;;;;;;;;;;5002213;28;20453;-65
2021/03/15 07:32:49;;;;;;;3.30;2.70;;;;;;;;;;4994433;28;20462;-65
2021/03/15 07:35:26;;;;;;;4.27;2.40;;;;;;;;;;4985922;28;20475;-65
2021/03/15 07:37:52;;;;;;;4.60;2.20;;;;;;;;;;4987754;28;20478;-66
2021/03/15 07:40:39;;;;;;;6.50;2.20;;;;;;;;;;4980689;28;20549;-65
2021/03/15 07:43:07;;;;;;;4.37;2.53;;;;;;;;;;4981211;28;20459;-67
2021/03/15 07:45:35;;;;;;;3.37;1.73;;;;;;;;;;4979907;28;20539;-67
2021/03/15 07:48:12;;;;;;;3.10;1.93;;;;;;;;;;4993148;28;20450;-67
2021/03/15 07:50:40;;;;;;;4.80;3.47;;;;;;;;;;4977286;28;20455;-66
2021/03/15 07:53:07;;;;;;;9.17;5.47;;;;;;;;;;4981338;28;20639;-66
2021/03/15 07:55:35;;;;;;;8.70;6.40;;;;;;;;;;4992884;28;20474;-67
2021/03/15 07:58:01;;;;;;;7.13;6.37;;;;;;;;;;4987178;28;20474;-66
2021/03/15 08:00:29;;;;;;;7.60;6.80;;;;;;;;;;4993961;28;20532;-66
2021/03/15 08:02:57;;;;;;;7.40;6.60;;;;;;;;;;4993350;28;20481;-65
2021/03/15 08:05:25;;;;;;;8.63;6.83;;;;;;;;;;4992625;28;20474;-65
2021/03/15 08:07:51;;;;;;;8.53;7.60;;;;;;;;;;4993108;28;20477;-66
2021/03/15 08:10:18;;;;;;;10.30;7.57;;;;;;;;;;4977832;28;20965;-66
2021/03/15 08:12:47;;;;;;;12.37;8.13;;;;;;;;;;4973202;28;21017;-67
2021/03/15 08:15:13;;;;;;;9.90;7.43;;;;;;;;;;4989652;28;20568;-63
2021/03/15 08:17:43;;;;;;;11.27;8.70;;;;;;;;;;4988736;28;20486;-66
2021/03/15 08:20:10;;;;;;;9.57;7.73;;;;;;;;;;4983327;23;20502;-64
2021/03/15 08:22:39;;;;;;;11.53;8.53;;;;;;;;;;4973546;28;20954;-64
2021/03/15 08:25:08;;;;;;;11.80;8.30;;;;;;;;;;4973751;28;20974;-64
2021/03/15 08:27:37;;;;;;;12.10;8.40;;;;;;;;;;4974462;28;20455;-64
2021/03/15 08:30:04;;;;;;;16.60;8.53;;;;;;;;;;4964605;28;20511;-64
2021/03/15 08:32:35;;;;;;;12.77;8.27;;;;;;;;;;4954181;29;20456;-67
2021/03/15 08:35:02;;;;;;;9.97;6.60;;;;;;;;;;4954691;28;20883;-66
2021/03/15 08:37:47;;;;;;;12.87;8.63;;;;;;;;;;4953298;28;20492;-66
2021/03/15 08:40:15;;;;;;;11.27;7.80;;;;;;;;;;4965085;28;21545;-63
2021/03/15 08:42:41;;;;;;;12.67;7.20;;;;;;;;;;4954398;28;20539;-63
2021/03/15 08:45:27;;;;;;;10.37;6.57;;;;;;;;;;4959199;28;20843;-64
2021/03/15 08:47:54;;;;;;;11.67;6.73;;;;;;;;;;4954921;29;20570;-62
2021/03/15 08:50:43;;;;;;;10.33;3.47;;;;;;;;;;4953111;28;20480;-62
2021/03/15 08:53:10;;;;;;;7.00;2.70;;;;;;;;;;4954673;29;20535;-65
2021/03/15 08:55:48;;;;;;;3.07;2.10;;;;;;;;;;4953788;29;20460;-66
2021/03/15 08:58:33;;;;;;;6.50;3.00;;;;;;;;;;4955024;28;22243;-65
2021/03/15 09:01:00;;;;;;;3.40;2.07;;;;;;;;;;4954003;29;20456;-64
2021/03/15 09:03:45;;;;;;;5.17;1.60;;;;;;;;;;4953868;29;20990;-65
2021/03/15 09:06:12;;;;;;;6.77;2.17;;;;;;;;;;4934831;29;20975;-69
2021/03/15 09:08:57;;;;;;;7.20;2.27;;;;;;;;;;4946780;28;20579;-66
2021/03/15 09:11:44;;;;;;;6.73;1.97;;;;;;;;;;4953736;29;20460;-67
2021/03/15 09:14:30;;;;;;;7.33;4.73;;;;;;;;;;4955031;28;20514;-62
2021/03/15 09:16:59;;;;;;;9.90;5.47;;;;;;;;;;4956905;28;20479;-67
2021/03/15 09:19:26;;;;;;;11.10;5.63;;;;;;;;;;4953325;29;20570;-64
2021/03/15 09:21:56;;;;;;;8.73;5.70;;;;;;;;;;4953382;29;20456;-64
2021/03/15 09:24:36;;;;;;;9.50;5.80;;;;;;;;;;4953280;28;20467;-65
2021/03/15 09:27:03;;;;;;;8.80;4.83;;;;;;;;;;4956836;29;20535;-64
2021/03/15 09:29:30;;;;;;;9.33;5.50;;;;;;;;;;4958691;28;20464;-66
2021/03/15 09:32:01;;;;;;;7.30;5.03;;;;;;;;;;4970620;28;20974;-67
2021/03/15 09:34:28;;;;;;;8.67;4.67;;;;;;;;;;4956696;29;20491;-66
2021/03/15 09:36:56;;;;;;;9.53;4.73;;;;;;;;;;4956976;29;21034;-68
2021/03/15 09:39:23;;;;;;;13.13;5.50;;;;;;;;;;4957198;28;20519;-68
2021/03/15 09:41:50;;;;;;;12.80;5.70;;;;;;;;;;4957328;29;20830;-71
2021/03/15 09:44:22;;;;;;;9.83;4.50;;;;;;;;;;4956820;28;20960;-68
2021/03/15 09:46:50;;;;;;;10.83;5.13;;;;;;;;;;4965176;28;20835;-69
2021/03/15 09:52:16;;;;;;;11.60;5.37;;;;;;;;;;5102674;27;21079;-69
2021/03/15 09:54:44;;;;;;;9.60;4.70;;;;;;;;;;5089213;28;20457;-72
2021/03/15 09:57:11;;;;;;;9.70;5.37;;;;;;;;;;5089189;28;20465;-68
2021/03/15 09:59:38;;;;;;;12.07;5.23;;;;;;;;;;5088961;28;20477;-66
2021/03/15 10:02:04;;;;;;;12.00;5.00;;;;;;;;;;5088353;28;20471;-66
2021/03/15 10:04:33;;;;;;;12.10;5.00;;;;;;;;;;5089402;28;20450;-71
2021/03/15 10:07:00;;;;;;;9.60;4.50;;;;;;;;;;5089031;28;20545;-70
2021/03/15 10:09:28;;;;;;;7.77;4.47;;;;;;;;;;5089287;28;20505;-71
2021/03/15 10:11:55;;;;;;;9.63;5.30;;;;;;;;;;5088777;28;20476;-67
2021/03/15 10:14:24;;;;;;;12.13;5.60;;;;;;;;;;5089033;28;20454;-67
2021/03/15 10:16:57;;;;;;;10.23;5.17;;;;;;;;;;5090435;28;20442;-67
2021/03/15 10:19:25;;;;;;;14.67;5.70;;;;;;;;;;5092154;28;20514;-67
2021/03/15 10:21:52;;;;;;;10.63;5.50;;;;;;;;;;5091595;28;20940;-67
2021/03/15 10:24:33;;;;;;;9.90;5.00;;;;;;;;;;5093502;28;20510;-71
2021/03/15 10:27:01;;;;;;;13.10;4.57;;;;;;;;;;5087902;28;20515;-72
2021/03/15 10:29:28;;;;;;;12.43;5.10;;;;;;;;;;5087952;28;20615;-76
2021/03/15 10:31:55;;;;;;;15.40;6.00;;;;;;;;;;5088577;28;20470;-72
2021/03/15 10:34:23;;;;;;;13.87;5.67;;;;;;;;;;5088003;28;20446;-71
2021/03/15 10:36:50;;;;;;;10.17;5.70;;;;;;;;;;5088692;28;20817;-67
2021/03/15 10:39:16;;;;;;;10.60;4.70;;;;;;;;;;5087483;28;20988;-67
2021/03/15 10:41:43;;;;;;;14.10;4.93;;;;;;;;;;5088147;28;20874;-68
2021/03/15 10:44:12;;;;;;;10.77;4.30;;;;;;;;;;5088119;28;20451;-68
2021/03/15 10:46:45;;;;;;;15.67;5.30;;;;;;;;;;5087931;28;20481;-67
2021/03/15 10:49:16;;;;;;;11.30;4.40;;;;;;;;;;5088019;28;20469;-67
2021/03/15 10:51:43;;;;;;;13.33;5.23;;;;;;;;;;5087845;28;20561;-67
2021/03/15 10:54:10;;;;;;;14.17;5.93;;;;;;;;;;5088410;28;20454;-67
2021/03/15 10:56:36;;;;;;;14.00;6.30;;;;;;;;;;5087579;28;20567;-68
2021/03/15 10:59:03;;;;;;;14.57;5.83;;;;;;;;;;5087464;28;20535;-67
2021/03/15 11:01:31;;;;;;;14.10;5.83;;;;;;;;;;5085652;28;20979;-67
2021/03/15 11:04:09;;;;;;;13.93;5.90;;;;;;;;;;5074129;28;20447;-68
2021/03/15 11:06:36;;;;;;;19.67;6.10;;;;;;;;;;5074161;28;20971;-67
2021/03/15 11:09:03;;;;;;;17.13;6.20;;;;;;;;;;5073856;28;20524;-67
2021/03/15 11:11:31;;;;;;;14.60;5.77;;;;;;;;;;5074554;28;20479;-68
2021/03/15 11:13:58;;;;;;;10.80;4.20;;;;;;;;;;5070943;28;20462;-68
2021/03/15 11:16:27;;;;;;;5.73;2.60;;;;;;;;;;5073173;28;20447;-68
2021/03/15 11:19:07;;;;;;;12.20;5.40;;;;;;;;;;5073939;28;20521;-67
2021/03/15 11:21:35;;;;;;;15.57;5.87;;;;;;;;;;5073206;28;20442;-67
2021/03/15 11:24:03;;;;;;;17.20;6.10;;;;;;;;;;5073838;28;20501;-69
2021/03/15 11:26:30;;;;;;;13.00;5.60;;;;;;;;;;5073129;28;20835;-68
2021/03/15 11:28:57;;;;;;;15.60;5.60;;;;;;;;;;5072669;28;20513;-68
2021/03/15 11:31:27;;;;;;;11.83;4.47;;;;;;;;;;5073275;28;20482;-68
2021/03/15 11:33:54;;;;;;;7.90;4.30;;;;;;;;;;5072095;28;20504;-67
2021/03/15 11:36:23;;;;;;;11.20;4.40;;;;;;;;;;5072820;28;21234;-67
2021/03/15 11:38:51;;;;;;;8.47;5.30;;;;;;;;;;5072134;28;20885;-68
2021/03/15 11:41:18;;;;;;;9.70;4.33;;;;;;;;;;5073401;28;20478;-67
2021/03/15 11:43:45;;;;;;;9.80;4.07;;;;;;;;;;5073140;28;20530;-68
2021/03/15 11:46:11;;;;;;;5.43;2.37;;;;;;;;;;5073059;28;20575;-67
2021/03/15 11:48:38;;;;;;;8.93;4.23;;;;;;;;;;5087355;28;20479;-68
2021/03/15 11:51:05;;;;;;;9.53;4.50;;;;;;;;;;5080592;28;20514;-67
2021/03/15 11:53:33;;;;;;;7.30;4.30;;;;;;;;;;5072645;28;20462;-66
2021/03/15 11:55:59;;;;;;;12.03;4.67;;;;;;;;;;5072722;28;20794;-67
2021/03/15 11:58:26;;;;;;;6.37;4.00;;;;;;;;;;5072841;28;20538;-67
2021/03/15 12:00:54;;;;;;;10.50;4.47;;;;;;;;;;5071365;28;21001;-67
2021/03/15 12:03:20;;;;;;;9.07;4.73;;;;;;;;;;5072654;28;20459;-67
2021/03/15 12:05:47;;;;;;;9.53;4.00;;;;;;;;;;5072263;28;20887;-67
2021/03/15 12:08:13;;;;;;;9.93;4.60;;;;;;;;;;5073172;28;20447;-66
2021/03/15 12:10:43;;;;;;;12.53;4.17;;;;;;;;;;5072613;28;20490;-66
2021/03/15 12:13:09;;;;;;;12.40;4.80;;;;;;;;;;5072727;28;20486;-67
2021/03/15 12:15:36;;;;;;;12.07;4.20;;;;;;;;;;5072025;28;20534;-74
2021/03/15 12:18:03;;;;;;;9.40;4.23;;;;;;;;;;5072887;28;20829;-67
2021/03/15 12:20:30;;;;;;;9.40;4.10;;;;;;;;;;5072591;28;20544;-70
2021/03/15 12:22:56;;;;;;;9.43;4.20;;;;;;;;;;5072928;28;20455;-74
2021/03/15 12:25:23;;;;;;;8.60;3.93;;;;;;;;;;5070377;28;20855;-71
2021/03/15 12:27:52;;;;;;;3.30;2.63;;;;;;;;;;5069400;28;20463;-65
2021/03/15 12:30:20;;;;;;;4.63;3.13;;;;;;;;;;5070572;28;20490;-64
2021/03/15 12:32:46;;;;;;;3.60;2.73;;;;;;;;;;5069523;28;20462;-65
2021/03/15 12:35:13;;;;;;;4.57;3.07;;;;;;;;;;5072606;28;20459;-64
2021/03/15 12:37:40;;;;;;;3.40;2.37;;;;;;;;;;5072096;28;20526;-66
2021/03/15 12:40:07;;;;;;;3.10;2.80;;;;;;;;;;5068936;28;20496;-64
2021/03/15 12:42:34;;;;;;;2.70;2.50;;;;;;;;;;5066290;28;20461;-65
2021/03/15 12:45:02;;;;;;;3.13;2.20;;;;;;;;;;5072655;28;20539;-65
2021/03/15 12:47:28;;;;;;;2.57;2.37;;;;;;;;;;5071004;28;20542;-64
2021/03/15 12:49:55;;;;;;;3.27;2.07;;;;;;;;;;5072390;28;20978;-64
2021/03/15 12:52:21;;;;;;;3.53;2.27;;;;;;;;;;5072001;28;20482;-65
2021/03/15 12:54:48;;;;;;;4.03;2.33;;;;;;;;;;5071283;28;20516;-65
2021/03/15 12:57:15;;;;;;;4.30;2.50;;;;;;;;;;5067502;28;20535;-64
2021/03/15 12:59:41;;;;;;;2.60;2.40;;;;;;;;;;5070830;28;20475;-64
2021/03/15 13:02:10;;;;;;;4.57;2.97;;;;;;;;;;5058858;28;20464;-63
2021/03/15 13:04:36;;;;;;;4.83;2.93;;;;;;;;;;5066684;28;20462;-65
2021/03/15 13:07:03;;;;;;;4.63;3.10;;;;;;;;;;5070682;28;20561;-67
2021/03/15 13:09:30;;;;;;;6.43;2.77;;;;;;;;;;5070593;28;21066;-67
2021/03/15 13:11:57;;;;;;;5.40;3.10;;;;;;;;;;5070416;28;21005;-67
2021/03/15 13:14:23;;;;;;;3.30;3.00;;;;;;;;;;5072539;28;20885;-67
2021/03/15 13:16:50;;;;;;;7.17;3.43;;;;;;;;;;5070207;28;20463;-67
2021/03/15 13:19:18;;;;;;;6.47;3.23;;;;;;;;;;5054314;28;21066;-67
2021/03/15 13:21:45;;;;;;;4.60;3.00;;;;;;;;;;5067602;28;20555;-70
2021/03/15 13:24:12;;;;;;;2.70;2.50;;;;;;;;;;5071969;28;20487;-66
2021/03/15 13:26:39;;;;;;;4.80;2.80;;;;;;;;;;5071662;28;20451;-66
2021/03/15 13:29:05;;;;;;;5.90;3.60;;;;;;;;;;5071522;28;20563;-65
2021/03/15 13:31:32;;;;;;;3.77;3.07;;;;;;;;;;5070460;28;20485;-66
2021/03/15 13:33:58;;;;;;;3.43;2.80;;;;;;;;;;5071470;28;20816;-66
2021/03/15 13:36:26;;;;;;;5.50;2.90;;;;;;;;;;5072108;28;20451;-69
2021/03/15 13:38:53;;;;;;;6.43;2.93;;;;;;;;;;5072023;28;20482;-69
2021/03/15 13:41:19;;;;;;;2.93;2.63;;;;;;;;;;5071113;28;20811;-66
2021/03/15 13:43:46;;;;;;;3.20;2.70;;;;;;;;;;5073129;28;21009;-73
2021/03/15 13:46:13;;;;;;;3.23;2.57;;;;;;;;;;5071030;28;20540;-74
2021/03/15 13:48:39;;;;;;;3.77;2.80;;;;;;;;;;5070250;28;20491;-71
2021/03/15 13:51:06;;;;;;;3.00;2.70;;;;;;;;;;5072199;28;20993;-69
2021/03/15 13:53:34;;;;;;;4.37;2.50;;;;;;;;;;5072148;28;20463;-72
2021/03/15 13:56:00;;;;;;;6.43;2.70;;;;;;;;;;5070963;28;20549;-77
2021/03/15 13:58:27;;;;;;;3.40;2.40;;;;;;;;;;5072539;28;20533;-71
2021/03/15 14:00:53;;;;;;;3.73;2.77;;;;;;;;;;5071315;28;20459;-70
2021/03/15 14:03:20;;;;;;;3.77;2.50;;;;;;;;;;5071675;28;20462;-72
2021/03/15 14:05:47;;;;;;;3.33;2.47;;;;;;;;;;5072640;28;20447;-76
2021/03/15 14:08:13;;;;;;;3.87;3.20;;;;;;;;;;5072679;28;20538;-74
2021/03/15 14:10:41;;;;;;;3.63;2.70;;;;;;;;;;5072350;28;21001;-71
2021/03/15 14:13:07;;;;;;;5.30;2.87;;;;;;;;;;5072583;28;20816;-78
2021/03/15 14:15:34;;;;;;;3.50;2.73;;;;;;;;;;5071638;28;20451;-73
2021/03/15 14:18:01;;;;;;;3.80;2.83;;;;;;;;;;5072866;28;20575;-73
2021/03/15 14:20:27;;;;;;;3.97;2.97;;;;;;;;;;5042768;22;20485;-65
2021/03/15 14:22:54;;;;;;;3.07;2.73;;;;;;;;;;5011798;28;20484;-65
2021/03/15 14:25:21;;;;;;;3.70;3.00;;;;;;;;;;5011669;28;20445;-65
2021/03/15 14:27:48;;;;;;;4.80;3.20;;;;;;;;;;5011742;28;20454;-66
2021/03/15 14:30:15;;;;;;;3.83;2.80;;;;;;;;;;5003623;28;20494;-65
2021/03/15 14:32:42;;;;;;;5.13;3.33;;;;;;;;;;4991255;28;20446;-65
2021/03/15 14:35:09;;;;;;;6.60;3.40;;;;;;;;;;4988133;28;20471;-66
2021/03/15 14:37:36;;;;;;;5.10;3.30;;;;;;;;;;4993294;28;20451;-65
2021/03/15 14:40:03;;;;;;;3.30;3.00;;;;;;;;;;4982488;28;20562;-66
2021/03/15 14:42:30;;;;;;;4.37;3.00;;;;;;;;;;4992050;28;20474;-65
2021/03/15 14:44:57;;;;;;;4.37;3.27;;;;;;;;;;5001786;28;20545;-65
2021/03/15 14:47:24;;;;;;;4.90;3.50;;;;;;;;;;4988238;28;21027;-65